Auburndale, Florida
Current Conditions -  °F | °C
As of 3:53 PM on Thursday 18 Dec 2014 (Local Time) from KGIF Reporting Station
Clear Clear  
Wind Chill: 69°   Ceiling: Unl
Heat Index: 69°   Visibility: 10mi
Dew Point: 45°   Wind: 3mph
Humidity: 42%   Direction: 270°W
Pressure: 30.11"   Gusts: NA
Location:  28.06°N, 81.78°W
Report Text: KGIF 182053Z AUTO 27003KT 10SM CLR 21/07 A3011 RMK AO2 SLP194 T02060072 56017
Loading
Personal Weather Stations






























Interactive Weather Map New forecast layout! Learn more

10-Day Weather Forecast

Advertisements
Track Severe Weather on mobile